Silencio — MLGX2 — position and weather

sailwx.info

Track history (hours):
 
Tides and Currents Weather Stations Pressure Air Temp Water Temp Dewpoint Dewpoint Depression Visibility Wind Speed Wind Dir Waves Ship Positions

Silencio

Last reported at 2016-Aug-30 20:28 UTC. Time now 2016-Aug-30 20:55 UTC.
Position N 40°50' E 014°13'.

Length 49 m; draft 3.8 m.

Type: Sailing vessel. MMSI: 232747000.

Date/timePositionNaut miles runAvg speedWind from/ knotsBaromVisibWave heightAir tempDewpointWater temp
2016-Aug-30 20:28N 40°50' E 014°13'0 0.0
2016-Aug-30 17:15N 40°50' E 014°13'0 0.0
2016-Aug-30 16:33N 40°50' E 014°13'0 0.0
2016-Aug-30 15:32N 40°50' E 014°13'0 0.0
2016-Aug-30 14:33N 40°50' E 014°13'0 0.0
2016-Aug-30 13:33N 40°50' E 014°13'0 0.0
2016-Aug-30 12:33N 40°50' E 014°13'0 0.0
2016-Aug-30 11:33N 40°50' E 014°13'0 0.0
2016-Aug-30 10:33N 40°50' E 014°13'0 0.0
2016-Aug-29 17:04N 40°50' E 014°13'0 0.0
2016-Aug-29 13:33N 40°50' E 014°13'0 0.0
2016-Aug-28 16:17N 40°50' E 014°13'0 0.0
2016-Aug-28 14:33N 40°50' E 014°13'0 0.0
2016-Aug-28 13:07N 40°50' E 014°13'0 0.0
2016-Aug-28 12:33N 40°50' E 014°13'0 0.0
2016-Aug-28 11:33N 40°50' E 014°13'0 0.0
2016-Aug-27 04:23N 40°50' E 014°13'0 0.0
2016-Aug-26 22:21N 40°50' E 014°13'0 0.0
2016-Aug-26 19:33N 40°50' E 014°13'0 0.0
2016-Aug-26 18:33N 40°50' E 014°13'0 0.0
2016-Aug-26 17:33N 40°50' E 014°13'10 0.4
2016-Aug-25 17:33N 40°45' E 014°02'0 0.0
2016-Aug-25 13:24N 40°45' E 014°02'0 0.0
2016-Aug-25 12:27N 40°45' E 014°02'23 0.8
2016-Aug-24 07:23N 40°37' E 014°30'0 0.0
2016-Aug-24 01:24N 40°37' E 014°30'0 0.0
2016-Aug-23 22:25N 40°37' E 014°30'0 0.0
2016-Aug-23 21:23N 40°37' E 014°30'0 0.0
2016-Aug-23 04:18N 40°37' E 014°30'0 0.0
2016-Aug-23 03:33N 40°37' E 014°30'0 0.0
2016-Aug-23 02:24N 40°37' E 014°30'0 0.0
2016-Aug-23 00:16N 40°37' E 014°30'0 0.0
2016-Aug-22 23:30N 40°37' E 014°30'0 0.5
2016-Aug-22 22:32N 40°37' E 014°30'0 0.0
2016-Aug-22 21:19N 40°37' E 014°30'0 0.0
2016-Aug-22 19:31N 40°37' E 014°30'0 0.0
2016-Aug-22 13:14N 40°37' E 014°30'8 8.8
2016-Aug-22 12:20N 40°34' E 014°20'5 5.9
2016-Aug-22 11:33N 40°34' E 014°14'0 0.0
2016-Aug-22 10:33N 40°34' E 014°14'0 0.0
2016-Aug-22 09:33N 40°34' E 014°14'0 0.0
2016-Aug-22 08:33N 40°34' E 014°14'0 0.0
2016-Aug-22 07:33N 40°34' E 014°14'0 0.0
2016-Aug-22 06:33N 40°34' E 014°14'0 0.0
2016-Aug-22 05:33N 40°34' E 014°14'0 0.0
2016-Aug-22 04:33N 40°34' E 014°14'0 0.0
2016-Aug-22 03:33N 40°34' E 014°14'0 0.0
2016-Aug-22 02:33N 40°34' E 014°14'0 0.0
2016-Aug-22 01:33N 40°34' E 014°14'0 0.0
2016-Aug-22 00:33N 40°34' E 014°14'0 0.0
2016-Aug-21 23:33N 40°34' E 014°14'0 0.0
2016-Aug-21 22:33N 40°34' E 014°14'0 0.0
2016-Aug-21 21:33N 40°34' E 014°14'0 0.0
2016-Aug-21 20:33N 40°34' E 014°14'0 0.0
2016-Aug-21 19:33N 40°34' E 014°14'0 0.0
2016-Aug-21 18:33N 40°34' E 014°14'0 0.5
2016-Aug-21 17:33N 40°34' E 014°15'1 0.6
2016-Aug-21 15:31N 40°32' E 014°15'0 0.0
2016-Aug-21 14:33N 40°32' E 014°15'0 0.0
2016-Aug-21 13:33N 40°32' E 014°15'0 0.0
2016-Aug-21 12:33N 40°32' E 014°15'0 0.0
2016-Aug-21 11:33N 40°32' E 014°15'0 0.0
2016-Aug-21 10:33N 40°32' E 014°15'1 1.4
2016-Aug-21 09:34N 40°34' E 014°14'0 0.0
2016-Aug-21 08:33N 40°34' E 014°14'0 0.0
2016-Aug-21 07:33N 40°34' E 014°14'0 0.0
2016-Aug-21 06:32N 40°34' E 014°14'0 0.0
2016-Aug-21 05:33N 40°34' E 014°14'0 0.0
2016-Aug-21 04:33N 40°34' E 014°14'0 0.0
2016-Aug-21 03:33N 40°34' E 014°14'0 0.0
2016-Aug-21 02:33N 40°34' E 014°14'0 0.0
2016-Aug-21 01:33N 40°34' E 014°14'0 0.0
2016-Aug-21 00:33N 40°34' E 014°14'0 0.0
2016-Aug-20 23:33N 40°34' E 014°14'0 0.0
2016-Aug-20 22:33N 40°34' E 014°14'0 0.0
2016-Aug-20 21:33N 40°34' E 014°14'0 0.0
2016-Aug-20 20:33N 40°34' E 014°14'  
Track history (hours):
 
Tides and Currents Weather Stations Pressure Air Temp Water Temp Dewpoint Dewpoint Depression Visibility Wind Speed Wind Dir Waves Ship Positions

Silencio

Last reported at 2016-Aug-30 20:28 UTC. Time now 2016-Aug-30 20:55 UTC.
Position N 40°50' E 014°13'.

Length 49 m; draft 3.8 m.

Type: Sailing vessel. MMSI: 232747000.

Date/timePositionNaut miles runAvg speedWind from/ knotsBaromVisibWave heightAir tempDewpointWater temp
2016-Aug-30 20:28N 40°50' E 014°13'0 0.0
2016-Aug-30 17:15N 40°50' E 014°13'0 0.0
2016-Aug-30 16:33N 40°50' E 014°13'0 0.0
2016-Aug-30 15:32N 40°50' E 014°13'0 0.0
2016-Aug-30 14:33N 40°50' E 014°13'0 0.0
2016-Aug-30 13:33N 40°50' E 014°13'0 0.0
2016-Aug-30 12:33N 40°50' E 014°13'0 0.0
2016-Aug-30 11:33N 40°50' E 014°13'0 0.0
2016-Aug-30 10:33N 40°50' E 014°13'0 0.0
2016-Aug-29 17:04N 40°50' E 014°13'0 0.0
2016-Aug-29 13:33N 40°50' E 014°13'0 0.0
2016-Aug-28 16:17N 40°50' E 014°13'0 0.0
2016-Aug-28 14:33N 40°50' E 014°13'0 0.0
2016-Aug-28 13:07N 40°50' E 014°13'0 0.0
2016-Aug-28 12:33N 40°50' E 014°13'0 0.0
2016-Aug-28 11:33N 40°50' E 014°13'0 0.0
2016-Aug-27 04:23N 40°50' E 014°13'0 0.0
2016-Aug-26 22:21N 40°50' E 014°13'0 0.0
2016-Aug-26 19:33N 40°50' E 014°13'0 0.0
2016-Aug-26 18:33N 40°50' E 014°13'0 0.0
2016-Aug-26 17:33N 40°50' E 014°13'10 0.4
2016-Aug-25 17:33N 40°45' E 014°02'0 0.0
2016-Aug-25 13:24N 40°45' E 014°02'0 0.0
2016-Aug-25 12:27N 40°45' E 014°02'23 0.8
2016-Aug-24 07:23N 40°37' E 014°30'0 0.0
2016-Aug-24 01:24N 40°37' E 014°30'0 0.0
2016-Aug-23 22:25N 40°37' E 014°30'0 0.0
2016-Aug-23 21:23N 40°37' E 014°30'0 0.0
2016-Aug-23 04:18N 40°37' E 014°30'0 0.0
2016-Aug-23 03:33N 40°37' E 014°30'0 0.0
2016-Aug-23 02:24N 40°37' E 014°30'0 0.0
2016-Aug-23 00:16N 40°37' E 014°30'0 0.0
2016-Aug-22 23:30N 40°37' E 014°30'0 0.5
2016-Aug-22 22:32N 40°37' E 014°30'0 0.0
2016-Aug-22 21:19N 40°37' E 014°30'0 0.0
2016-Aug-22 19:31N 40°37' E 014°30'0 0.0
2016-Aug-22 13:14N 40°37' E 014°30'8 8.8
2016-Aug-22 12:20N 40°34' E 014°20'5 5.9
2016-Aug-22 11:33N 40°34' E 014°14'0 0.0
2016-Aug-22 10:33N 40°34' E 014°14'0 0.0
2016-Aug-22 09:33N 40°34' E 014°14'0 0.0
2016-Aug-22 08:33N 40°34' E 014°14'0 0.0
2016-Aug-22 07:33N 40°34' E 014°14'0 0.0
2016-Aug-22 06:33N 40°34' E 014°14'0 0.0
2016-Aug-22 05:33N 40°34' E 014°14'0 0.0
2016-Aug-22 04:33N 40°34' E 014°14'0 0.0
2016-Aug-22 03:33N 40°34' E 014°14'0 0.0
2016-Aug-22 02:33N 40°34' E 014°14'0 0.0
2016-Aug-22 01:33N 40°34' E 014°14'0 0.0
2016-Aug-22 00:33N 40°34' E 014°14'0 0.0
2016-Aug-21 23:33N 40°34' E 014°14'0 0.0
2016-Aug-21 22:33N 40°34' E 014°14'0 0.0
2016-Aug-21 21:33N 40°34' E 014°14'0 0.0
2016-Aug-21 20:33N 40°34' E 014°14'0 0.0
2016-Aug-21 19:33N 40°34' E 014°14'0 0.0
2016-Aug-21 18:33N 40°34' E 014°14'0 0.5
2016-Aug-21 17:33N 40°34' E 014°15'1 0.6
2016-Aug-21 15:31N 40°32' E 014°15'0 0.0
2016-Aug-21 14:33N 40°32' E 014°15'0 0.0
2016-Aug-21 13:33N 40°32' E 014°15'0 0.0
2016-Aug-21 12:33N 40°32' E 014°15'0 0.0
2016-Aug-21 11:33N 40°32' E 014°15'0 0.0
2016-Aug-21 10:33N 40°32' E 014°15'1 1.4
2016-Aug-21 09:34N 40°34' E 014°14'0 0.0
2016-Aug-21 08:33N 40°34' E 014°14'0 0.0
2016-Aug-21 07:33N 40°34' E 014°14'0 0.0
2016-Aug-21 06:32N 40°34' E 014°14'0 0.0
2016-Aug-21 05:33N 40°34' E 014°14'0 0.0
2016-Aug-21 04:33N 40°34' E 014°14'0 0.0
2016-Aug-21 03:33N 40°34' E 014°14'0 0.0
2016-Aug-21 02:33N 40°34' E 014°14'0 0.0
2016-Aug-21 01:33N 40°34' E 014°14'0 0.0
2016-Aug-21 00:33N 40°34' E 014°14'0 0.0
2016-Aug-20 23:33N 40°34' E 014°14'0 0.0
2016-Aug-20 22:33N 40°34' E 014°14'0 0.0
2016-Aug-20 21:33N 40°34' E 014°14'0 0.0
2016-Aug-20 20:33N 40°34' E 014°14'  

Dump ship's entire track history